Time;durP1;ratioP1;P1;durP2;ratioP2;P2;SDS_P1;SDS_P2;PMS_P1;PMS_P2;Temp;Humidity;BMP_temperature;BMP_pressure;BME280_temperature;BME280_humidity;BME280_pressure;Samples;Min_cycle;Max_cycle;Signal;HPM_P1;HPM_P2
2023/01/21 05:06:06;;;;;;;6.13;5.13;;;-3.60;99.90;;;;;;5032495;28;20217;-60
2023/01/21 05:08:31;;;;;;;8.00;5.10;;;-3.70;99.90;;;;;;5035028;28;20208;-59
2023/01/21 05:10:57;;;;;;;9.33;6.00;;;-3.70;99.90;;;;;;5035217;28;20179;-60
2023/01/21 05:13:22;;;;;;;6.33;5.20;;;-3.70;99.90;;;;;;5034962;28;20630;-60
2023/01/21 05:15:48;;;;;;;6.43;5.63;;;-3.70;99.90;;;;;;5034812;28;20197;-61
2023/01/21 05:18:14;;;;;;;7.10;5.80;;;-3.70;99.90;;;;;;5035489;28;20174;-60
2023/01/21 05:20:39;;;;;;;5.47;4.27;;;-3.70;99.90;;;;;;5018144;28;20321;-60
2023/01/21 05:23:05;;;;;;;6.80;5.73;;;-3.70;99.90;;;;;;5034533;28;20178;-61
2023/01/21 05:25:30;;;;;;;7.07;4.13;;;-3.80;99.90;;;;;;5036350;28;20200;-59
2023/01/21 05:27:56;;;;;;;8.00;6.17;;;-3.80;99.90;;;;;;5038145;28;20528;-61
2023/01/21 05:30:21;;;;;;;3.97;3.67;;;-3.90;99.90;;;;;;5038323;28;20218;-62
2023/01/21 05:32:51;;;;;;;4.80;3.73;;;-3.90;99.90;;;;;;5018373;28;20718;-61
2023/01/21 05:35:19;;;;;;;6.05;4.47;;;-3.90;99.90;;;;;;5036670;28;20272;-61
2023/01/21 05:37:46;;;;;;;4.65;4.35;;;-3.90;99.90;;;;;;5038267;28;20170;-62
2023/01/21 05:40:15;;;;;;;6.93;4.28;;;-3.90;99.90;;;;;;5034992;28;20202;-62
2023/01/21 05:42:42;;;;;;;5.18;4.78;;;-3.90;99.90;;;;;;5034112;28;20185;-61
2023/01/21 05:45:10;;;;;;;7.05;4.97;;;-3.90;99.90;;;;;;5034092;28;20564;-61
2023/01/21 05:47:36;;;;;;;3.85;3.42;;;-3.90;99.90;;;;;;5034133;28;20178;-61
2023/01/21 05:50:02;;;;;;;6.13;4.80;;;-3.90;99.90;;;;;;5033919;28;20235;-60
2023/01/21 05:52:28;;;;;;;4.55;4.15;;;-3.90;99.90;;;;;;5033957;28;20460;-60
2023/01/21 05:54:53;;;;;;;6.67;4.47;;;-3.90;99.90;;;;;;5033480;28;20197;-62
2023/01/21 05:57:19;;;;;;;3.93;3.70;;;-3.90;99.90;;;;;;5034426;28;20174;-59
2023/01/21 05:59:44;;;;;;;5.93;4.63;;;-3.90;99.90;;;;;;5034313;28;20640;-61
2023/01/21 06:02:10;;;;;;;4.17;3.87;;;-3.90;99.90;;;;;;5034830;28;20228;-60
2023/01/21 06:04:35;;;;;;;3.97;3.10;;;-3.80;99.90;;;;;;5033528;28;20201;-58
2023/01/21 06:07:01;;;;;;;5.17;4.77;;;-3.80;99.90;;;;;;5033703;28;20644;-61
2023/01/21 06:09:27;;;;;;;4.47;4.07;;;-3.80;99.90;;;;;;5033659;28;20188;-61
2023/01/21 06:11:52;;;;;;;4.33;3.87;;;-3.90;99.90;;;;;;5033662;28;20232;-61
2023/01/21 06:14:18;;;;;;;6.57;4.87;;;-3.90;99.90;;;;;;5032633;28;20190;-60
2023/01/21 06:16:43;;;;;;;4.77;4.40;;;-3.90;99.90;;;;;;5033165;28;20574;-62
2023/01/21 06:19:09;;;;;;;7.07;6.20;;;-3.90;99.90;;;;;;5033869;28;20166;-61
2023/01/21 06:21:34;;;;;;;5.83;5.27;;;-3.90;99.90;;;;;;5033406;28;20212;-61
2023/01/21 06:24:01;;;;;;;5.63;5.13;;;-3.90;99.90;;;;;;5032935;28;20194;-61
2023/01/21 06:26:27;;;;;;;4.80;4.38;;;-3.90;99.90;;;;;;5033221;28;20200;-62
2023/01/21 06:28:55;;;;;;;4.37;4.07;;;-4.00;99.90;;;;;;5033282;28;20183;-60
2023/01/21 06:31:21;;;;;;;4.57;3.88;;;-3.90;99.90;;;;;;5033282;28;20456;-60
2023/01/21 06:33:47;;;;;;;3.47;3.27;;;-4.00;99.90;;;;;;5032645;28;20262;-60
2023/01/21 06:36:12;;;;;;;4.53;4.20;;;-3.90;99.90;;;;;;5033295;28;20409;-59
2023/01/21 06:38:38;;;;;;;4.20;3.90;;;-3.90;99.90;;;;;;5033081;28;20209;-61
2023/01/21 06:41:04;;;;;;;4.70;4.30;;;-4.00;99.90;;;;;;5033330;28;20165;-60
2023/01/21 06:43:29;;;;;;;3.17;2.97;;;-3.90;99.90;;;;;;5033192;28;20166;-60
2023/01/21 06:45:55;;;;;;;7.37;4.87;;;-3.90;99.90;;;;;;5033217;28;20551;-62
2023/01/21 06:48:20;;;;;;;5.03;3.80;;;-4.00;99.90;;;;;;5033026;28;20215;-62
2023/01/21 06:50:46;;;;;;;5.17;4.67;;;-4.00;99.90;;;;;;5033289;28;20174;-63
2023/01/21 06:53:12;;;;;;;4.60;4.23;;;-4.00;99.90;;;;;;5032374;28;20206;-60
2023/01/21 06:55:38;;;;;;;8.17;4.50;;;-4.00;99.90;;;;;;5033012;28;20431;-61
2023/01/21 06:58:03;;;;;;;5.50;4.67;;;-4.00;99.90;;;;;;5033267;28;20178;-61
2023/01/21 07:00:29;;;;;;;13.93;7.37;;;-4.00;99.90;;;;;;5033143;28;20670;-61
2023/01/21 07:02:58;;;;;;;4.90;3.70;;;-4.00;99.90;;;;;;5032621;28;20184;-61
2023/01/21 07:05:24;;;;;;;4.75;4.35;;;-4.00;99.90;;;;;;5032697;28;20214;-61
2023/01/21 07:07:53;;;;;;;7.60;4.68;;;-3.90;99.90;;;;;;5032940;28;20170;-61
2023/01/21 07:10:18;;;;;;;6.25;5.45;;;-3.90;99.90;;;;;;5032934;28;20186;-60
2023/01/21 07:12:44;;;;;;;7.30;6.70;;;-3.90;99.90;;;;;;5011678;28;20194;-61
2023/01/21 07:15:10;;;;;;;6.43;3.40;;;-3.80;99.90;;;;;;5009385;28;20229;-60
2023/01/21 07:17:35;;;;;;;7.17;5.17;;;-3.80;99.90;;;;;;5032151;28;20194;-61
2023/01/21 07:20:01;;;;;;;4.67;3.80;;;-3.70;99.90;;;;;;5032860;28;20170;-63
2023/01/21 07:22:27;;;;;;;6.80;6.00;;;-3.70;99.90;;;;;;5036632;28;20424;-61
2023/01/21 07:24:52;;;;;;;8.85;4.60;;;-3.60;99.90;;;;;;5036120;28;20187;-60
2023/01/21 07:27:18;;;;;;;6.07;4.37;;;-3.60;99.90;;;;;;5036379;28;20332;-62
2023/01/21 07:29:44;;;;;;;7.93;5.67;;;-3.50;99.90;;;;;;5021683;28;20190;-62
2023/01/21 07:32:09;;;;;;;7.10;4.47;;;-3.40;99.90;;;;;;5029722;28;20210;-61
2023/01/21 07:34:35;;;;;;;5.30;4.80;;;-3.30;99.90;;;;;;5018135;28;20196;-59
2023/01/21 07:37:00;;;;;;;10.10;5.33;;;-3.20;99.90;;;;;;5036253;28;20212;-61
2023/01/21 07:39:26;;;;;;;10.60;8.63;;;-3.10;99.90;;;;;;5028593;28;20174;-60
2023/01/21 07:41:52;;;;;;;6.73;5.67;;;-3.00;99.90;;;;;;5018918;28;20185;-62
2023/01/21 07:44:18;;;;;;;8.80;6.15;;;-2.90;99.90;;;;;;5015874;28;20202;-61
2023/01/21 07:46:43;;;;;;;7.67;5.30;;;-2.80;99.90;;;;;;5027790;28;20183;-61
2023/01/21 07:49:11;;;;;;;7.87;7.07;;;-2.80;99.90;;;;;;5035877;28;20682;-66
2023/01/21 07:51:37;;;;;;;13.52;7.65;;;-2.70;99.90;;;;;;5023272;28;20758;-61
2023/01/21 07:54:03;;;;;;;9.90;5.90;;;-2.70;99.90;;;;;;5015994;28;20222;-61
2023/01/21 07:56:28;;;;;;;9.83;7.13;;;-2.60;99.90;;;;;;5016340;28;20171;-62
2023/01/21 07:58:54;;;;;;;11.67;7.43;;;-2.50;99.90;;;;;;4998857;28;20177;-63
2023/01/21 08:01:20;;;;;;;10.40;7.47;;;-2.30;99.90;;;;;;5031644;28;20182;-65
2023/01/21 08:03:45;;;;;;;16.60;7.57;;;-2.20;99.90;;;;;;5032852;28;20187;-63
2023/01/21 08:06:11;;;;;;;8.97;6.37;;;-2.10;99.90;;;;;;5031632;28;20434;-58
2023/01/21 08:08:36;;;;;;;8.10;5.57;;;-2.00;99.90;;;;;;5032563;28;20646;-62
2023/01/21 08:11:02;;;;;;;7.97;6.77;;;-2.00;99.90;;;;;;5035789;28;20525;-60
2023/01/21 08:13:28;;;;;;;12.80;5.87;;;-1.90;99.90;;;;;;5035267;28;20251;-67
2023/01/21 08:15:55;;;;;;;12.43;6.10;;;-1.90;99.90;;;;;;5011592;28;20194;-62
2023/01/21 08:18:22;;;;;;;9.93;7.38;;;-1.90;99.90;;;;;;5024629;28;20163;-69
2023/01/21 08:20:56;;;;;;;11.20;7.88;;;-1.80;99.90;;;;;;5025125;28;20220;-64
2023/01/21 08:23:22;;;;;;;8.75;6.13;;;-1.80;99.90;;;;;;5015527;28;20165;-61
2023/01/21 08:25:48;;;;;;;7.60;6.63;;;-1.70;99.90;;;;;;5015504;28;20204;-71
2023/01/21 08:28:13;;;;;;;9.83;6.93;;;-1.70;99.90;;;;;;5015529;28;20182;-64
2023/01/21 08:30:39;;;;;;;5.47;5.00;;;-1.60;99.90;;;;;;5029775;28;20182;-70
2023/01/21 08:33:04;;;;;;;10.83;7.23;;;-1.60;99.90;;;;;;5034964;28;20194;-63
2023/01/21 08:35:30;;;;;;;10.37;8.03;;;-1.60;99.90;;;;;;5035467;28;20205;-63
2023/01/21 08:37:58;;;;;;;16.70;9.70;;;-1.50;99.90;;;;;;5035759;28;20200;-64
2023/01/21 08:40:26;;;;;;;11.70;8.35;;;-1.40;99.90;;;;;;5036545;28;20233;-61
2023/01/21 08:42:56;;;;;;;10.27;8.10;;;-1.30;99.90;;;;;;5037353;28;20212;-63
2023/01/21 08:45:22;;;;;;;12.32;8.15;;;-1.30;99.90;;;;;;5019415;28;20190;-62
2023/01/21 08:47:47;;;;;;;11.93;8.03;;;-1.30;99.90;;;;;;5038603;28;20178;-62
2023/01/21 08:50:13;;;;;;;14.07;11.80;;;-1.20;99.90;;;;;;5038920;28;20220;-61
2023/01/21 08:52:38;;;;;;;10.17;8.20;;;-1.10;99.90;;;;;;5038193;28;20571;-63
2023/01/21 08:55:05;;;;;;;18.17;8.77;;;-1.10;99.90;;;;;;5036398;28;20182;-64
2023/01/21 08:57:32;;;;;;;17.83;7.70;;;-1.00;99.90;;;;;;5035749;28;20166;-64
2023/01/21 08:59:58;;;;;;;16.40;9.45;;;-0.90;99.90;;;;;;5029267;28;20199;-63
2023/01/21 09:02:23;;;;;;;14.37;9.87;;;-0.80;99.90;;;;;;5025745;28;20635;-64
2023/01/21 09:04:49;;;;;;;13.80;8.63;;;-0.80;99.90;;;;;;5023727;28;20201;-63
2023/01/21 09:07:15;;;;;;;16.13;10.23;;;-0.70;99.90;;;;;;5025898;28;20200;-64
2023/01/21 09:09:41;;;;;;;12.77;8.37;;;-0.60;99.90;;;;;;5016526;28;20636;-61
2023/01/21 09:12:06;;;;;;;9.97;6.40;;;-0.60;99.90;;;;;;5021090;28;20475;-63
2023/01/21 09:14:32;;;;;;;17.70;10.90;;;-0.50;99.90;;;;;;5034526;28;20201;-61
2023/01/21 09:16:57;;;;;;;12.03;7.50;;;-0.50;99.90;;;;;;5034551;28;20169;-64
2023/01/21 09:19:23;;;;;;;11.47;7.90;;;-0.40;99.90;;;;;;5034550;28;20171;-65
2023/01/21 09:21:51;;;;;;;15.02;9.68;;;-0.30;99.90;;;;;;5033987;28;20229;-63
2023/01/21 09:24:17;;;;;;;13.52;8.00;;;-0.30;99.90;;;;;;5033857;28;20204;-63
2023/01/21 09:26:45;;;;;;;13.73;8.67;;;-0.30;99.90;;;;;;5031060;28;20554;-64
2023/01/21 09:29:11;;;;;;;10.88;8.55;;;-0.20;99.90;;;;;;5019984;28;20413;-64
2023/01/21 09:31:36;;;;;;;15.50;8.37;;;-0.20;99.90;;;;;;5013271;28;20332;-66
2023/01/21 09:34:04;;;;;;;15.97;9.93;;;-0.10;99.90;;;;;;5012732;28;20195;-64
2023/01/21 09:36:32;;;;;;;13.27;9.43;;;-0.10;99.90;;;;;;5029246;28;20174;-64
2023/01/21 09:38:58;;;;;;;13.57;9.57;;;-0.10;99.90;;;;;;5014709;28;20181;-63
2023/01/21 09:41:43;;;;;;;14.87;7.70;;;0.00;99.90;;;;;;5016124;28;20261;-64
2023/01/21 09:44:29;;;;;;;14.13;7.85;;;0.00;99.90;;;;;;5031674;28;20465;-66
2023/01/21 09:47:10;;;;;;;12.85;8.63;;;0.10;99.90;;;;;;5032346;28;20201;-63
2023/01/21 09:49:40;;;;;;;13.73;7.13;;;0.10;99.90;;;;;;5032375;28;20189;-64
2023/01/21 09:52:31;;;;;;;10.82;7.85;;;0.10;99.90;;;;;;5032421;28;20235;-64
2023/01/21 09:54:58;;;;;;;12.30;6.95;;;0.10;99.90;;;;;;5031987;28;20192;-62
2023/01/21 09:57:42;;;;;;;10.07;7.43;;;0.10;99.90;;;;;;5014388;28;20181;-64
2023/01/21 10:00:19;;;;;;;14.25;7.65;;;0.20;99.90;;;;;;5030734;28;20573;-61
2023/01/21 10:03:21;;;;;;;13.55;7.45;;;0.20;99.90;;;;;;5033392;28;20183;-63
2023/01/21 10:06:13;;;;;;;14.98;8.38;;;0.10;99.90;;;;;;5033400;28;20630;-63
2023/01/21 10:09:16;;;;;;;11.95;8.25;;;0.20;99.90;;;;;;5033908;28;20181;-64
2023/01/21 10:12:02;;;;;;;11.70;6.80;;;0.10;99.90;;;;;;5033220;28;20193;-64
2023/01/21 10:14:39;;;;;;;11.93;7.30;;;0.20;99.90;;;;;;5032414;28;20193;-62
2023/01/21 10:17:17;;;;;;;16.48;10.05;;;0.20;99.90;;;;;;5033684;28;20168;-64
2023/01/21 10:20:10;;;;;;;17.85;8.75;;;0.20;99.90;;;;;;5033453;28;20253;-63
2023/01/21 10:22:41;;;;;;;11.40;7.07;;;0.30;99.90;;;;;;5018261;28;20178;-64
2023/01/21 10:25:18;;;;;;;12.57;8.02;;;0.30;99.90;;;;;;5033361;28;20198;-63
2023/01/21 10:27:45;;;;;;;13.77;8.95;;;0.30;99.90;;;;;;5033347;28;20181;-66
2023/01/21 10:30:25;;;;;;;9.52;6.70;;;0.40;99.90;;;;;;5033346;28;20174;-65
2023/01/21 10:32:53;;;;;;;9.13;7.03;;;0.40;99.90;;;;;;5033027;28;20199;-64
2023/01/21 10:35:30;;;;;;;14.57;8.25;;;0.40;99.90;;;;;;5033116;28;20264;-64
2023/01/21 10:38:12;;;;;;;9.27;6.80;;;0.50;99.90;;;;;;5033278;28;20249;-65
2023/01/21 10:40:47;;;;;;;12.07;7.85;;;0.50;99.90;;;;;;5033036;28;20182;-63
2023/01/21 10:43:23;;;;;;;10.77;7.25;;;0.50;99.90;;;;;;5033098;28;20184;-63
2023/01/21 10:45:56;;;;;;;10.57;6.82;;;0.60;99.90;;;;;;5032976;28;20197;-62
2023/01/21 10:48:36;;;;;;;10.48;8.48;;;0.70;99.90;;;;;;5033539;28;20520;-64
2023/01/21 10:51:12;;;;;;;16.83;8.93;;;0.70;99.90;;;;;;5033139;28;20170;-63
2023/01/21 10:54:03;;;;;;;14.50;8.85;;;0.70;99.90;;;;;;5032617;28;20197;-63
2023/01/21 10:56:32;;;;;;;11.73;8.65;;;0.70;99.90;;;;;;5037670;28;20527;-63
2023/01/21 10:59:04;;;;;;;10.00;7.95;;;0.70;99.90;;;;;;5037324;28;20169;-64
2023/01/21 11:01:36;;;;;;;13.80;8.75;;;0.70;99.90;;;;;;5036828;28;20186;-64
2023/01/21 11:04:20;;;;;;;7.35;6.55;;;0.70;99.90;;;;;;5019009;28;20202;-63
2023/01/21 11:07:02;;;;;;;14.45;7.43;;;0.70;99.90;;;;;;5036940;28;20275;-64
2023/01/21 11:09:31;;;;;;;12.38;6.95;;;0.70;99.90;;;;;;5036818;28;20192;-64
2023/01/21 11:11:57;;;;;;;20.00;8.55;;;0.60;99.90;;;;;;5035921;28;20225;-64
2023/01/21 11:14:26;;;;;;;9.73;6.73;;;0.60;99.90;;;;;;5036226;28;20232;-65
2023/01/21 11:16:53;;;;;;;14.10;8.00;;;0.60;99.90;;;;;;5036380;28;20181;-64
2023/01/21 11:19:25;;;;;;;13.13;9.75;;;0.60;99.90;;;;;;5036911;28;20178;-63
2023/01/21 11:22:20;;;;;;;13.50;7.57;;;0.60;99.90;;;;;;5036299;28;20182;-64
2023/01/21 11:24:48;;;;;;;8.25;6.32;;;0.50;99.90;;;;;;5035081;28;20733;-63
2023/01/21 11:27:36;;;;;;;12.10;7.28;;;0.50;99.90;;;;;;5036315;28;20184;-63
2023/01/21 11:30:06;;;;;;;10.10;6.43;;;0.50;99.90;;;;;;5036397;28;20202;-61
2023/01/21 11:32:32;;;;;;;11.15;6.28;;;0.50;99.90;;;;;;5036204;28;20555;-63
2023/01/21 11:35:08;;;;;;;12.63;7.43;;;0.50;99.90;;;;;;5035848;28;20209;-64
2023/01/21 11:37:36;;;;;;;9.43;6.68;;;0.50;99.90;;;;;;5018538;28;20570;-62
2023/01/21 11:40:27;;;;;;;8.20;6.55;;;0.60;99.90;;;;;;5036673;28;20197;-62
2023/01/21 11:42:55;;;;;;;9.55;6.45;;;0.60;99.90;;;;;;5035920;28;20612;-62
2023/01/21 11:45:32;;;;;;;13.88;8.10;;;0.70;99.90;;;;;;5035944;28;20198;-63
2023/01/21 11:47:59;;;;;;;10.48;6.10;;;0.70;99.90;;;;;;5036079;28;20178;-65
2023/01/21 11:50:26;;;;;;;12.00;7.65;;;0.70;99.90;;;;;;5036310;28;20243;-63
2023/01/21 11:53:07;;;;;;;9.75;6.05;;;0.80;99.90;;;;;;5035734;28;20560;-61
2023/01/21 11:55:40;;;;;;;7.78;5.07;;;0.80;99.90;;;;;;5036177;28;20197;-63
2023/01/21 11:58:34;;;;;;;9.07;7.15;;;0.80;99.90;;;;;;5036144;28;20166;-63
2023/01/21 12:01:04;;;;;;;10.68;6.65;;;0.80;99.90;;;;;;5035820;28;20185;-64
2023/01/21 12:03:34;;;;;;;14.27;7.50;;;0.80;99.90;;;;;;5035669;28;20174;-64
2023/01/21 12:06:01;;;;;;;8.70;6.40;;;0.80;99.90;;;;;;5035219;28;20190;-62
2023/01/21 12:08:34;;;;;;;12.18;6.78;;;0.70;99.90;;;;;;5035542;28;20194;-63
2023/01/21 12:11:01;;;;;;;11.60;6.93;;;0.70;99.90;;;;;;5035628;28;20177;-64
2023/01/21 12:13:49;;;;;;;9.80;8.15;;;0.70;99.90;;;;;;5035011;28;20659;-62
2023/01/21 12:16:31;;;;;;;7.95;6.68;;;0.70;99.90;;;;;;5036226;28;20181;-61
2023/01/21 12:19:16;;;;;;;6.55;4.78;;;0.70;99.90;;;;;;5035904;28;20588;-63
2023/01/21 12:22:11;;;;;;;9.27;6.95;;;0.70;99.90;;;;;;5035719;28;20177;-62
2023/01/21 12:24:46;;;;;;;13.82;8.10;;;0.80;99.90;;;;;;5034960;28;20224;-63
2023/01/21 12:27:48;;;;;;;10.07;5.50;;;0.80;99.90;;;;;;5035677;28;20185;-63
2023/01/21 12:30:34;;;;;;;9.68;7.80;;;0.90;99.90;;;;;;5035584;28;20188;-63
2023/01/21 12:33:23;;;;;;;11.93;6.97;;;1.00;99.90;;;;;;5034885;28;20679;-62
2023/01/21 12:35:55;;;;;;;15.20;7.88;;;1.10;99.90;;;;;;5035840;28;20230;-65
2023/01/21 12:38:26;;;;;;;9.23;6.78;;;1.10;99.90;;;;;;5035232;28;20193;-62
2023/01/21 12:41:11;;;;;;;12.25;7.40;;;1.10;99.90;;;;;;5035359;28;20177;-63
2023/01/21 12:43:45;;;;;;;13.70;7.65;;;1.10;99.90;;;;;;5034895;28;20173;-65
2023/01/21 12:46:33;;;;;;;7.85;6.47;;;1.20;99.90;;;;;;5034774;28;20182;-64
2023/01/21 12:49:05;;;;;;;8.75;6.45;;;1.20;99.90;;;;;;5035257;28;20200;-63
2023/01/21 12:51:46;;;;;;;6.32;5.45;;;1.10;99.90;;;;;;5035168;28;20544;-65
2023/01/21 12:54:30;;;;;;;19.17;7.55;;;1.10;99.90;;;;;;5034607;28;20642;-64
2023/01/21 12:57:19;;;;;;;11.25;6.82;;;1.10;99.90;;;;;;5035274;28;20177;-63
2023/01/21 12:59:51;;;;;;;13.75;7.38;;;1.00;99.90;;;;;;5034841;28;20184;-63
2023/01/21 13:02:31;;;;;;;10.32;7.35;;;1.00;99.90;;;;;;5034946;28;20528;-63
2023/01/21 13:05:07;;;;;;;12.18;6.22;;;0.90;99.90;;;;;;5034219;28;20237;-62
2023/01/21 13:07:49;;;;;;;10.25;7.03;;;0.90;99.90;;;;;;5034795;28;20237;-63
2023/01/21 13:10:18;;;;;;;8.77;7.55;;;0.80;99.90;;;;;;5034579;28;20207;-64
2023/01/21 13:12:56;;;;;;;9.95;6.70;;;0.80;99.90;;;;;;5034426;28;20202;-62
2023/01/21 13:15:29;;;;;;;10.85;6.50;;;0.70;99.90;;;;;;5034216;28;20675;-63
2023/01/21 13:17:59;;;;;;;14.55;8.60;;;0.70;99.90;;;;;;5033745;28;20754;-62
2023/01/21 13:20:25;;;;;;;15.10;7.75;;;0.80;99.90;;;;;;5034666;28;20537;-64
2023/01/21 13:23:19;;;;;;;10.75;6.82;;;0.80;99.90;;;;;;5034126;28;20247;-63
2023/01/21 13:26:30;;;;;;;11.93;5.85;;;0.70;99.90;;;;;;5033052;28;20328;-64
2023/01/21 13:29:00;;;;;;;23.10;7.80;;;0.60;99.90;;;;;;5015949;28;20186;-62
2023/01/21 13:31:49;;;;;;;11.02;5.88;;;0.60;99.90;;;;;;5034172;28;20174;-63
2023/01/21 13:34:23;;;;;;;10.80;7.10;;;0.60;99.90;;;;;;5033661;28;20559;-63
2023/01/21 13:37:03;;;;;;;8.85;6.43;;;0.60;99.90;;;;;;5015274;28;20166;-64
2023/01/21 13:39:42;;;;;;;9.73;7.28;;;0.60;99.90;;;;;;5034134;28;20178;-64
2023/01/21 13:42:27;;;;;;;9.95;6.15;;;0.70;99.90;;;;;;5034056;28;20176;-63
2023/01/21 13:45:14;;;;;;;6.13;5.53;;;0.70;99.90;;;;;;5033208;28;20204;-62
2023/01/21 13:48:01;;;;;;;8.20;6.80;;;0.70;99.90;;;;;;5034686;28;20211;-64
2023/01/21 13:50:59;;;;;;;12.35;6.93;;;0.70;99.90;;;;;;5034429;28;20548;-63
2023/01/21 13:53:52;;;;;;;8.20;5.45;;;0.70;99.90;;;;;;5033223;28;20548;-64
2023/01/21 13:56:24;;;;;;;7.15;4.90;;;0.70;99.90;;;;;;5033678;28;20174;-63
2023/01/21 13:58:57;;;;;;;12.30;6.40;;;0.70;99.90;;;;;;5033844;28;20620;-65
2023/01/21 14:01:25;;;;;;;9.75;5.07;;;0.70;99.90;;;;;;5033697;28;20524;-65
2023/01/21 14:04:17;;;;;;;13.70;9.55;;;0.70;99.90;;;;;;5033091;28;20201;-62
2023/01/21 14:07:18;;;;;;;11.52;7.07;;;0.70;99.90;;;;;;5033666;28;20280;-63
2023/01/21 14:10:05;;;;;;;9.65;7.10;;;0.70;99.90;;;;;;5016429;28;20571;-62
2023/01/21 14:13:04;;;;;;;6.20;5.53;;;0.70;99.90;;;;;;5016241;28;20285;-63
2023/01/21 14:15:39;;;;;;;13.55;6.60;;;0.70;99.90;;;;;;5033640;28;20194;-64
2023/01/21 14:18:23;;;;;;;9.25;6.40;;;0.70;99.90;;;;;;5032983;28;20176;-64
2023/01/21 14:20:55;;;;;;;8.48;5.68;;;0.80;99.90;;;;;;5033668;28;20169;-63
2023/01/21 14:23:39;;;;;;;11.27;5.82;;;0.80;99.90;;;;;;5033168;28;20205;-63
2023/01/21 14:26:22;;;;;;;5.82;4.53;;;0.80;99.90;;;;;;5033186;28;20170;-62
2023/01/21 14:29:13;;;;;;;11.63;4.22;;;0.80;99.90;;;;;;5033401;28;20561;-62
2023/01/21 14:31:44;;;;;;;7.55;4.63;;;0.80;99.90;;;;;;5033474;28;20198;-63
2023/01/21 14:34:21;;;;;;;9.43;4.80;;;0.80;99.90;;;;;;5032653;28;20201;-63
2023/01/21 14:37:27;;;;;;;8.85;5.80;;;0.90;99.90;;;;;;5033414;28;20169;-64
2023/01/21 14:40:23;;;;;;;8.00;5.60;;;0.80;99.90;;;;;;5028215;28;20520;-62
2023/01/21 14:42:50;;;;;;;8.32;6.00;;;0.80;99.90;;;;;;5032717;28;20170;-63
2023/01/21 14:45:20;;;;;;;4.53;3.85;;;0.80;99.90;;;;;;5032614;28;20255;-62
2023/01/21 14:47:57;;;;;;;10.43;6.43;;;0.80;99.90;;;;;;5033473;28;20181;-63
2023/01/21 14:50:41;;;;;;;9.85;5.15;;;0.80;99.90;;;;;;5015458;28;20623;-64
2023/01/21 14:53:15;;;;;;;5.28;4.03;;;0.80;99.90;;;;;;5032547;28;20197;-62
2023/01/21 14:55:41;;;;;;;8.50;5.85;;;0.80;99.90;;;;;;5033058;28;20201;-63
2023/01/21 14:58:22;;;;;;;6.63;4.77;;;0.80;99.90;;;;;;5032711;28;20170;-63
2023/01/21 15:00:49;;;;;;;8.85;5.15;;;0.80;99.90;;;;;;5015094;28;20176;-63
2023/01/21 15:03:26;;;;;;;8.57;5.20;;;0.90;99.90;;;;;;5032952;28;20532;-62
2023/01/21 15:05:59;;;;;;;9.88;5.32;;;0.80;99.90;;;;;;5032777;28;20210;-63
2023/01/21 15:08:25;;;;;;;6.53;5.63;;;0.90;99.90;;;;;;5033289;28;20185;-64
2023/01/21 15:11:00;;;;;;;11.50;7.05;;;0.90;99.90;;;;;;5033059;28;20178;-62
2023/01/21 15:13:33;;;;;;;8.63;5.65;;;0.80;99.90;;;;;;5032359;28;20208;-64
2023/01/21 15:16:13;;;;;;;7.80;4.13;;;0.70;99.90;;;;;;5015421;28;20174;-62
2023/01/21 15:18:49;;;;;;;9.52;4.75;;;0.70;99.90;;;;;;5033437;28;20224;-64
2023/01/21 15:21:33;;;;;;;9.20;5.40;;;0.80;99.90;;;;;;5032917;28;20597;-63
2023/01/21 15:24:25;;;;;;;9.88;6.10;;;0.80;99.90;;;;;;5032443;28;20193;-62
2023/01/21 15:27:14;;;;;;;10.23;5.85;;;0.80;99.90;;;;;;5032579;28;20192;-64
2023/01/21 15:29:43;;;;;;;10.43;4.40;;;0.70;99.90;;;;;;5033007;28;20174;-63
2023/01/21 15:32:34;;;;;;;7.47;5.68;;;0.60;99.90;;;;;;5032698;28;20525;-63
2023/01/21 15:35:00;;;;;;;7.38;3.53;;;0.60;99.90;;;;;;5032242;28;20559;-63
2023/01/21 15:37:28;;;;;;;7.23;4.93;;;0.70;99.90;;;;;;5032872;28;20166;-62
2023/01/21 15:40:08;;;;;;;8.75;5.50;;;0.70;99.90;;;;;;5032489;28;20166;-62
2023/01/21 15:42:52;;;;;;;8.80;5.22;;;0.60;99.90;;;;;;5034420;28;20185;-61
2023/01/21 15:45:27;;;;;;;8.85;6.80;;;0.70;99.90;;;;;;5036262;28;20292;-62
2023/01/21 15:48:03;;;;;;;7.60;5.85;;;0.60;99.90;;;;;;5036757;28;20224;-63
2023/01/21 15:50:36;;;;;;;5.50;3.65;;;0.70;99.90;;;;;;5036509;28;20177;-65
2023/01/21 15:53:18;;;;;;;6.28;4.90;;;0.60;99.90;;;;;;5036435;28;20233;-64
2023/01/21 15:55:49;;;;;;;6.20;4.10;;;0.60;99.90;;;;;;5017906;28;20214;-64
2023/01/21 15:58:21;;;;;;;8.90;5.53;;;0.60;99.90;;;;;;5035891;28;20181;-64
2023/01/21 16:01:00;;;;;;;9.52;5.60;;;0.60;99.90;;;;;;5036476;28;20199;-64
2023/01/21 16:03:41;;;;;;;6.93;4.05;;;0.50;99.90;;;;;;5036253;28;20583;-62
2023/01/21 16:06:45;;;;;;;5.28;3.97;;;0.50;99.90;;;;;;5036316;28;20189;-64
2023/01/21 16:09:47;;;;;;;5.18;4.60;;;0.50;99.90;;;;;;5036764;28;20187;-63
2023/01/21 16:12:39;;;;;;;9.55;5.80;;;0.50;99.90;;;;;;5018496;28;20254;-64
2023/01/21 16:15:13;;;;;;;6.95;4.45;;;0.50;99.90;;;;;;5036593;28;20590;-63
2023/01/21 16:17:57;;;;;;;4.88;4.25;;;0.50;99.90;;;;;;5036112;28;20586;-63
2023/01/21 16:20:23;;;;;;;7.55;4.05;;;0.50;99.90;;;;;;5036979;28;20174;-64
2023/01/21 16:22:52;;;;;;;8.15;4.97;;;0.50;99.90;;;;;;5039363;28;20177;-65
2023/01/21 16:25:20;;;;;;;4.93;4.05;;;0.60;99.90;;;;;;5039428;28;20194;-65
2023/01/21 16:27:48;;;;;;;4.82;3.33;;;0.60;99.90;;;;;;5037234;28;20193;-66
2023/01/21 16:30:24;;;;;;;8.50;5.10;;;0.50;99.90;;;;;;5037008;28;20215;-65
2023/01/21 16:33:10;;;;;;;15.45;10.35;;;0.60;99.90;;;;;;5017942;28;20194;-64
2023/01/21 16:35:57;;;;;;;4.40;3.97;;;0.60;99.90;;;;;;5035598;28;20196;-62
2023/01/21 16:38:28;;;;;;;8.23;5.43;;;0.60;99.90;;;;;;5035219;28;20169;-63
2023/01/21 16:41:05;;;;;;;8.23;6.05;;;0.50;99.90;;;;;;5017278;28;20181;-63
2023/01/21 16:43:35;;;;;;;6.72;4.80;;;0.50;99.90;;;;;;5034874;28;20582;-62
2023/01/21 16:46:10;;;;;;;10.05;5.63;;;0.60;99.90;;;;;;5034968;28;20563;-63
2023/01/21 16:48:36;;;;;;;6.95;4.78;;;0.60;99.90;;;;;;5034948;28;20627;-60
2023/01/21 16:51:02;;;;;;;25.00;10.17;;;0.60;99.90;;;;;;5034529;28;20190;-63
2023/01/21 16:53:28;;;;;;;12.00;5.43;;;0.60;99.90;;;;;;5034046;28;20208;-64
2023/01/21 16:55:56;;;;;;;11.20;4.97;;;0.60;99.90;;;;;;5033909;28;20186;-63
2023/01/21 16:58:31;;;;;;;4.75;4.13;;;0.60;99.90;;;;;;5011305;28;20713;-64
2023/01/21 17:01:18;;;;;;;5.80;4.45;;;0.60;99.90;;;;;;5033913;28;20316;-64
2023/01/21 17:03:46;;;;;;;9.13;4.72;;;0.60;99.90;;;;;;5030519;28;20174;-64
2023/01/21 17:06:21;;;;;;;8.57;4.15;;;0.60;99.90;;;;;;5029196;28;20247;-63
2023/01/21 17:08:57;;;;;;;6.38;4.60;;;0.50;99.90;;;;;;5034611;28;20173;-64
2023/01/21 17:11:23;;;;;;;8.13;3.70;;;0.50;99.90;;;;;;5034436;28;20639;-64
2023/01/21 17:13:49;;;;;;;7.70;4.60;;;0.60;99.90;;;;;;5033512;28;20177;-63
2023/01/21 17:16:32;;;;;;;6.93;5.10;;;0.50;99.90;;;;;;5016053;28;20421;-61
2023/01/21 17:19:07;;;;;;;4.95;4.40;;;0.50;99.90;;;;;;5014388;28;20170;-64
2023/01/21 17:21:44;;;;;;;8.85;4.55;;;0.50;99.90;;;;;;5014690;28;20167;-63
2023/01/21 17:24:21;;;;;;;6.85;3.92;;;0.50;99.90;;;;;;5028265;28;20201;-61
2023/01/21 17:26:53;;;;;;;4.63;4.13;;;0.50;99.90;;;;;;5034239;28;20184;-62
2023/01/21 17:29:28;;;;;;;6.40;3.47;;;0.40;99.90;;;;;;5033972;28;20181;-64
2023/01/21 17:31:59;;;;;;;6.55;4.38;;;0.40;99.90;;;;;;5033628;28;20204;-64
2023/01/21 17:34:31;;;;;;;6.80;4.68;;;0.40;99.90;;;;;;5033654;28;20274;-64
2023/01/21 17:36:58;;;;;;;6.97;4.03;;;0.40;99.90;;;;;;5034270;28;20186;-65
2023/01/21 17:39:56;;;;;;;6.90;4.90;;;0.40;99.90;;;;;;5033348;28;20244;-63
2023/01/21 17:42:24;;;;;;;6.03;4.28;;;0.40;99.90;;;;;;5031907;28;20182;-61
2023/01/21 17:44:55;;;;;;;6.35;5.63;;;0.40;99.90;;;;;;5033385;28;20194;-64
2023/01/21 17:47:33;;;;;;;8.48;3.80;;;0.40;99.90;;;;;;5033879;28;20174;-63
2023/01/21 17:50:07;;;;;;;10.25;4.63;;;0.40;99.90;;;;;;5034058;28;20173;-64
2023/01/21 17:52:32;;;;;;;9.75;6.10;;;0.40;99.90;;;;;;5033264;28;20240;-60
2023/01/21 17:55:26;;;;;;;6.47;4.50;;;0.40;99.90;;;;;;5032736;28;20738;-64
2023/01/21 17:57:53;;;;;;;8.80;5.10;;;0.40;99.90;;;;;;5025829;28;20192;-63
2023/01/21 18:00:37;;;;;;;5.07;3.90;;;0.40;99.90;;;;;;5033692;28;20180;-64
2023/01/21 18:03:03;;;;;;;8.75;5.00;;;0.40;99.90;;;;;;5033306;28;20176;-64
2023/01/21 18:05:29;;;;;;;9.73;5.22;;;0.40;99.90;;;;;;5031932;28;20222;-64
2023/01/21 18:07:55;;;;;;;6.75;4.93;;;0.40;99.90;;;;;;5033149;28;20179;-62
2023/01/21 18:10:27;;;;;;;4.80;4.07;;;0.40;99.90;;;;;;5033628;28;20248;-64
2023/01/21 18:12:58;;;;;;;17.08;6.28;;;0.40;99.90;;;;;;5032525;28;20445;-62
2023/01/21 18:15:25;;;;;;;10.43;5.85;;;0.40;99.90;;;;;;5033034;28;20559;-62
2023/01/21 18:17:54;;;;;;;6.68;4.53;;;0.40;99.90;;;;;;5031923;28;20240;-63
2023/01/21 18:20:25;;;;;;;6.25;4.68;;;0.40;99.90;;;;;;5031433;28;20568;-62
2023/01/21 18:22:52;;;;;;;13.13;4.90;;;0.40;99.90;;;;;;5013481;28;20268;-63
2023/01/21 18:25:19;;;;;;;12.43;6.40;;;0.50;99.90;;;;;;5013573;28;20245;-65